Time,TemperatureF,DewpointF,PressureIn,WindDirection,WindDirectionDegrees,WindSpeedMPH,WindSpeedGustMPH,Humidity,HourlyPrecipIn,Conditions,Clouds,dailyrainin,SoftwareType,DateUTC
2013-02-14 14:15:00,72.3,48.6,29.76,ESE,112,0.0,0.0,43,0.00,,---,0.00,VWS V14.01,2013-02-14 22:15:00,
2013-02-14 14:16:00,72.3,48.6,29.76,SSE,158,1.6,1.6,43,0.00,,---,0.00,VWS V14.01,2013-02-14 22:16:00,
2013-02-14 14:17:00,72.3,48.6,29.76,WNW,292,1.1,2.2,43,0.00,,---,0.00,VWS V14.01,2013-02-14 22:17:00,
2013-02-14 14:22:00,72.7,48.9,29.76,SW,225,0.9,4.3,43,0.00,,---,0.00,VWS V14.01,2013-02-14 22:22:00,
2013-02-14 14:24:00,72.7,48.3,29.76,SE,135,1.1,2.7,42,0.00,,---,0.00,VWS V14.01,2013-02-14 22:24:00,
2013-02-14 14:30:00,72.7,48.3,29.76,WNW,292,1.6,2.2,42,0.00,,---,0.00,VWS V14.01,2013-02-14 22:30:00,
2013-02-14 14:35:00,72.9,48.5,29.76,East,90,1.6,1.6,42,0.00,,---,0.00,VWS V14.01,2013-02-14 22:35:00,
2013-02-14 14:40:00,72.9,48.5,29.76,ESE,112,0.9,3.1,42,0.00,,---,0.00,VWS V14.01,2013-02-14 22:40:00,
2013-02-14 14:45:00,73.0,48.6,29.76,ESE,112,2.0,2.0,42,0.00,,---,0.00,VWS V14.01,2013-02-14 22:45:00,
2013-02-14 14:50:00,73.0,48.6,29.76,ESE,112,0.0,0.0,42,0.00,,---,0.00,VWS V14.01,2013-02-14 22:50:00,
2013-02-14 14:55:00,73.2,47.5,29.76,ESE,112,2.7,2.9,40,0.00,,---,0.00,VWS V14.01,2013-02-14 22:55:00,
2013-02-14 15:00:00,72.9,47.2,29.76,SSE,158,1.3,2.0,40,0.00,,---,0.00,VWS V14.01,2013-02-14 23:00:00,
2013-02-14 15:06:00,72.9,47.2,29.76,ENE,68,0.0,0.0,40,0.00,,---,0.00,VWS V14.01,2013-02-14 23:06:00,
2013-02-14 15:11:00,72.7,45.6,29.76,ENE,68,1.3,2.7,38,0.00,,---,0.00,VWS V14.01,2013-02-14 23:11:00,
2013-02-14 15:16:00,72.5,46.2,29.76,WNW,292,1.1,1.1,39,0.00,,---,0.00,VWS V14.01,2013-02-14 23:16:00,
2013-02-14 15:21:00,72.3,46.0,29.76,SE,135,0.0,0.0,39,0.00,,---,0.00,VWS V14.01,2013-02-14 23:21:00,
2013-02-14 15:27:00,72.1,45.2,29.76,SSE,158,2.0,3.8,38,0.00,,---,0.00,VWS V14.01,2013-02-14 23:27:00,
2013-02-14 15:32:00,72.1,44.5,29.76,WNW,292,4.7,4.7,37,0.00,,---,0.00,VWS V14.01,2013-02-14 23:32:00,
2013-02-14 15:37:00,71.8,44.1,29.76,WSW,248,3.8,4.5,37,0.00,,---,0.00,VWS V14.01,2013-02-14 23:37:00,
2013-02-14 15:42:00,71.4,43.8,29.76,WSW,248,4.9,4.9,37,0.00,,---,0.00,VWS V14.01,2013-02-14 23:42:00,
2013-02-14 15:48:00,71.2,43.7,29.76,SE,135,1.3,2.9,37,0.00,,---,0.00,VWS V14.01,2013-02-14 23:48:00,
2013-02-14 15:53:00,71.1,43.5,29.76,NNW,338,0.9,2.7,37,0.00,,---,0.00,VWS V14.01,2013-02-14 23:53:00,
2013-02-14 15:58:00,70.7,42.5,29.76,WSW,248,4.0,4.0,36,0.00,,---,0.00,VWS V14.01,2013-02-14 23:58:00,
2013-02-14 16:03:00,70.3,40.7,29.76,SSE,158,0.0,1.3,34,0.00,,---,0.00,VWS V14.01,2013-02-15 00:03:00,
2013-02-14 16:09:00,70.2,40.5,29.76,West,270,2.0,5.6,34,0.00,,---,0.00,VWS V14.01,2013-02-15 00:09:00,
2013-02-14 16:14:00,70.0,40.3,29.76,SE,135,2.2,4.3,34,0.00,,---,0.00,VWS V14.01,2013-02-15 00:14:00,
2013-02-14 16:19:00,69.6,40.8,29.76,SSW,202,0.9,2.2,35,0.00,,---,0.00,VWS V14.01,2013-02-15 00:19:00,
2013-02-14 16:24:00,69.6,41.5,29.76,WSW,248,1.1,2.9,36,0.00,,---,0.00,VWS V14.01,2013-02-15 00:24:00,
2013-02-14 16:30:00,69.1,41.7,29.76,West,270,3.4,3.6,37,0.00,,---,0.00,VWS V14.01,2013-02-15 00:30:00,
2013-02-14 16:35:00,68.7,42.1,29.76,WSW,248,2.5,3.4,38,0.00,,---,0.00,VWS V14.01,2013-02-15 00:35:00,
2013-02-14 16:40:00,68.7,42.1,29.76,WSW,248,2.7,2.7,38,0.00,,---,0.00,VWS V14.01,2013-02-15 00:40:00,
2013-02-14 16:45:00,68.7,42.1,29.76,North,0,0.0,0.0,38,0.00,,---,0.00,VWS V14.01,2013-02-15 00:45:00,
2013-02-14 16:51:00,67.6,42.5,29.76,West,270,2.5,2.7,40,0.00,,---,0.00,VWS V14.01,2013-02-15 00:51:00,
2013-02-14 16:57:00,67.1,42.0,29.76,WNW,292,2.7,2.9,40,0.00,,---,0.00,VWS V14.01,2013-02-15 00:57:00,
2013-02-14 17:02:00,66.7,41.7,29.76,WNW,292,2.7,3.1,40,0.00,,---,0.00,VWS V14.01,2013-02-15 01:02:00,
2013-02-14 17:07:00,66.4,41.3,29.76,ENE,68,1.6,2.7,40,0.00,,---,0.00,VWS V14.01,2013-02-15 01:07:00,
2013-02-14 17:12:00,66.0,41.0,29.76,West,270,3.4,3.4,40,0.00,,---,0.00,VWS V14.01,2013-02-15 01:12:00,
2013-02-14 17:17:00,65.5,40.5,29.76,West,270,2.5,2.5,40,0.00,,---,0.00,VWS V14.01,2013-02-15 01:17:00,
2013-02-14 17:22:00,65.1,40.9,29.76,SSW,202,0.0,0.0,41,0.00,,---,0.00,VWS V14.01,2013-02-15 01:22:00,
2013-02-14 17:27:00,64.8,40.5,29.76,WSW,248,3.1,3.1,41,0.00,,---,0.00,VWS V14.01,2013-02-15 01:27:00,
2013-02-14 17:32:00,64.4,40.2,29.76,West,270,2.0,2.7,41,0.00,,---,0.00,VWS V14.01,2013-02-15 01:32:00,
2013-02-14 17:38:00,63.9,39.7,29.76,SSE,158,0.0,0.0,41,0.00,,---,0.00,VWS V14.01,2013-02-15 01:38:00,
2013-02-14 17:43:00,63.5,40.0,29.79,ESE,112,0.0,0.0,42,0.00,,---,0.00,VWS V14.01,2013-02-15 01:43:00,
2013-02-14 17:48:00,63.0,39.5,29.79,ESE,112,0.0,0.0,42,0.00,,---,0.00,VWS V14.01,2013-02-15 01:48:00,
2013-02-14 17:53:00,62.6,39.8,29.79,South,180,0.0,1.6,43,0.00,,---,0.00,VWS V14.01,2013-02-15 01:53:00,
2013-02-14 17:58:00,62.1,40.5,29.76,ENE,68,0.0,0.0,45,0.00,,---,0.00,VWS V14.01,2013-02-15 01:58:00,
2013-02-14 18:03:00,61.5,40.0,29.76,East,90,0.0,0.0,45,0.00,,---,0.00,VWS V14.01,2013-02-15 02:03:00,
2013-02-14 18:08:00,61.2,40.2,29.76,SSE,158,0.0,0.0,46,0.00,,---,0.00,VWS V14.01,2013-02-15 02:08:00,
2013-02-14 18:13:00,60.6,40.3,29.76,SSE,158,0.0,1.1,47,0.00,,---,0.00,VWS V14.01,2013-02-15 02:13:00,
2013-02-14 18:18:00,60.3,40.0,29.76,SSE,158,0.0,0.0,47,0.00,,---,0.00,VWS V14.01,2013-02-15 02:18:00,
2013-02-14 18:23:00,59.9,40.2,29.76,ENE,68,0.9,1.6,48,0.00,,---,0.00,VWS V14.01,2013-02-15 02:23:00,
2013-02-14 18:28:00,59.4,39.7,29.79,SE,135,0.0,0.0,48,0.00,,---,0.00,VWS V14.01,2013-02-15 02:28:00,
2013-02-14 18:33:00,59.2,40.0,29.79,SE,135,0.0,0.0,49,0.00,,---,0.00,VWS V14.01,2013-02-15 02:33:00,
2013-02-14 18:38:00,58.8,40.2,29.79,NE,45,0.0,0.0,50,0.00,,---,0.00,VWS V14.01,2013-02-15 02:38:00,
2013-02-14 18:43:00,58.5,39.9,29.79,ESE,112,0.0,0.0,50,0.00,,---,0.00,VWS V14.01,2013-02-15 02:43:00,
2013-02-14 18:48:00,58.1,40.1,29.79,ESE,112,0.0,0.0,51,0.00,,---,0.00,VWS V14.01,2013-02-15 02:48:00,
2013-02-14 18:53:00,57.7,39.8,29.79,ESE,112,0.0,0.0,51,0.00,,---,0.00,VWS V14.01,2013-02-15 02:53:00,
2013-02-14 18:58:00,57.4,39.9,29.79,ESE,112,0.0,0.0,52,0.00,,---,0.00,VWS V14.01,2013-02-15 02:58:00,
2013-02-14 19:03:00,57.0,40.1,29.79,ESE,112,0.0,0.0,53,0.00,,---,0.00,VWS V14.01,2013-02-15 03:03:00,
2013-02-14 19:08:00,56.7,39.7,29.79,ESE,112,0.0,0.0,53,0.00,,---,0.00,VWS V14.01,2013-02-15 03:08:00,
2013-02-14 19:13:00,56.5,39.6,29.79,ESE,112,0.0,1.6,53,0.00,,---,0.00,VWS V14.01,2013-02-15 03:13:00,
2013-02-14 19:18:00,56.3,39.9,29.79,ESE,112,0.0,0.0,54,0.00,,---,0.00,VWS V14.01,2013-02-15 03:18:00,
2013-02-14 19:23:00,55.8,39.4,29.79,ESE,112,0.0,1.1,54,0.00,,---,0.00,VWS V14.01,2013-02-15 03:23:00,
2013-02-14 19:28:00,55.4,39.5,29.79,ESE,112,0.0,0.0,55,0.00,,---,0.00,VWS V14.01,2013-02-15 03:28:00,
2013-02-14 19:33:00,54.9,39.0,29.79,East,90,0.0,0.0,55,0.00,,---,0.00,VWS V14.01,2013-02-15 03:33:00,
2013-02-14 19:38:00,54.5,39.1,29.79,East,90,0.0,0.0,56,0.00,,---,0.00,VWS V14.01,2013-02-15 03:38:00,
2013-02-14 19:43:00,54.1,39.3,29.79,East,90,0.0,0.0,57,0.00,,---,0.00,VWS V14.01,2013-02-15 03:43:00,
2013-02-14 19:48:00,53.6,38.8,29.79,North,0,0.0,0.0,57,0.00,,---,0.00,VWS V14.01,2013-02-15 03:48:00,
2013-02-14 19:53:00,53.2,39.3,29.79,North,0,0.0,0.0,59,0.00,,---,0.00,VWS V14.01,2013-02-15 03:53:00,
2013-02-14 19:58:00,52.9,39.0,29.79,North,0,0.0,0.0,59,0.00,,---,0.00,VWS V14.01,2013-02-15 03:58:00,
2013-02-14 20:03:00,52.7,38.8,29.79,North,0,0.0,0.0,59,0.00,,---,0.00,VWS V14.01,2013-02-15 04:03:00,
2013-02-14 20:08:00,52.3,38.9,29.79,North,0,0.0,0.0,60,0.00,,---,0.00,VWS V14.01,2013-02-15 04:08:00,
2013-02-14 20:13:00,52.0,39.0,29.79,North,0,0.0,0.0,61,0.00,,---,0.00,VWS V14.01,2013-02-15 04:13:00,
2013-02-14 20:18:00,51.8,38.8,29.79,North,0,0.0,0.0,61,0.00,,---,0.00,VWS V14.01,2013-02-15 04:18:00,
2013-02-14 20:23:00,51.6,39.0,29.79,North,0,0.0,0.0,62,0.00,,---,0.00,VWS V14.01,2013-02-15 04:23:00,
2013-02-14 20:28:00,51.4,39.3,29.79,North,0,0.0,0.0,63,0.00,,---,0.00,VWS V14.01,2013-02-15 04:28:00,
2013-02-14 20:33:00,51.3,38.7,29.79,North,0,0.0,0.0,62,0.00,,---,0.00,VWS V14.01,2013-02-15 04:33:00,
2013-02-14 20:38:00,51.3,39.1,29.79,WSW,248,1.1,1.1,63,0.00,,---,0.00,VWS V14.01,2013-02-15 04:38:00,
2013-02-14 20:43:00,51.1,39.3,29.79,WSW,248,0.0,0.0,64,0.00,,---,0.00,VWS V14.01,2013-02-15 04:43:00,
2013-02-14 20:48:00,50.5,38.8,29.79,WSW,248,0.0,0.0,64,0.00,,---,0.00,VWS V14.01,2013-02-15 04:48:00,
2013-02-14 20:53:00,50.2,38.5,29.79,WSW,248,0.0,0.0,64,0.00,,---,0.00,VWS V14.01,2013-02-15 04:53:00,
2013-02-14 20:58:00,50.0,38.7,29.79,WSW,248,0.0,0.0,65,0.00,,---,0.00,VWS V14.01,2013-02-15 04:58:00,
2013-02-14 21:01:00,49.6,38.4,29.79,WSW,248,0.0,0.0,65,0.00,,---,0.00,VWS V14.01,2013-02-15 05:01:00,
2013-02-14 21:02:00,49.6,38.8,29.79,WSW,248,0.0,0.0,66,0.00,,---,0.00,VWS V14.01,2013-02-15 05:02:00,
2013-02-14 21:03:00,49.5,38.6,29.79,WSW,248,0.0,0.0,66,0.00,,---,0.00,VWS V14.01,2013-02-15 05:03:00,
2013-02-14 21:05:00,49.3,38.4,29.79,WSW,248,0.0,0.0,66,0.00,,---,0.00,VWS V14.01,2013-02-15 05:05:00,
2013-02-14 21:11:00,48.9,38.1,29.79,WSW,248,0.0,0.0,66,0.00,,---,0.00,VWS V14.01,2013-02-15 05:11:00,
2013-02-14 21:16:00,48.7,38.3,29.79,WSW,248,0.0,0.0,67,0.00,,---,0.00,VWS V14.01,2013-02-15 05:16:00,
2013-02-14 21:21:00,48.7,38.3,29.79,WSW,248,0.0,0.0,67,0.00,,---,0.00,VWS V14.01,2013-02-15 05:21:00,
2013-02-14 21:26:00,48.4,37.9,29.79,WSW,248,0.0,0.0,67,0.00,,---,0.00,VWS V14.01,2013-02-15 05:26:00,
2013-02-14 21:31:00,48.0,38.0,29.79,WSW,248,0.0,0.0,68,0.00,,---,0.00,VWS V14.01,2013-02-15 05:31:00,
2013-02-14 21:36:00,47.8,37.8,29.79,SW,225,0.0,0.0,68,0.00,,---,0.00,VWS V14.01,2013-02-15 05:36:00,
2013-02-14 21:41:00,47.7,38.0,29.79,SSE,158,0.0,0.0,69,0.00,,---,0.00,VWS V14.01,2013-02-15 05:41:00,
2013-02-14 21:46:00,47.7,38.0,29.79,SSE,158,0.0,0.0,69,0.00,,---,0.00,VWS V14.01,2013-02-15 05:46:00,
2013-02-14 21:51:00,47.3,38.0,29.79,SSE,158,0.0,0.0,70,0.00,,---,0.00,VWS V14.01,2013-02-15 05:51:00,
2013-02-14 21:56:00,47.1,37.8,29.79,SSE,158,0.0,0.0,70,0.00,,---,0.00,VWS V14.01,2013-02-15 05:56:00,
2013-02-14 22:01:00,46.9,37.7,29.79,SSE,158,0.0,0.0,70,0.00,,---,0.00,VWS V14.01,2013-02-15 06:01:00,
2013-02-14 22:06:00,46.8,37.5,29.79,SSE,158,0.0,0.0,70,0.00,,---,0.00,VWS V14.01,2013-02-15 06:06:00,
2013-02-14 22:11:00,46.6,37.7,29.79,SSE,158,0.0,0.0,71,0.00,,---,0.00,VWS V14.01,2013-02-15 06:11:00,
2013-02-14 22:16:00,46.4,37.5,29.79,SSE,158,0.0,0.0,71,0.00,,---,0.00,VWS V14.01,2013-02-15 06:16:00,
2013-02-14 22:21:00,46.2,37.7,29.79,SSE,158,0.0,0.0,72,0.00,,---,0.00,VWS V14.01,2013-02-15 06:21:00,
2013-02-14 22:26:00,46.2,37.7,29.79,SSE,158,0.0,0.0,72,0.00,,---,0.00,VWS V14.01,2013-02-15 06:26:00,
2013-02-14 22:31:00,46.0,37.5,29.79,SSE,158,0.0,0.0,72,0.00,,---,0.00,VWS V14.01,2013-02-15 06:31:00,
2013-02-14 22:36:00,45.9,37.4,29.79,WNW,292,0.0,0.9,72,0.00,,---,0.00,VWS V14.01,2013-02-15 06:36:00,
2013-02-14 22:41:00,45.9,37.7,29.79,SSE,158,0.0,0.0,73,0.00,,---,0.00,VWS V14.01,2013-02-15 06:41:00,
2013-02-14 22:46:00,45.7,37.5,29.79,SSE,158,0.0,0.0,73,0.00,,---,0.00,VWS V14.01,2013-02-15 06:46:00,
2013-02-14 22:51:00,45.7,37.5,29.79,WSW,248,0.0,0.0,73,0.00,,---,0.00,VWS V14.01,2013-02-15 06:51:00,
2013-02-14 22:56:00,45.9,38.0,29.82,WSW,248,0.0,0.9,74,0.00,,---,0.00,VWS V14.01,2013-02-15 06:56:00,
2013-02-14 23:01:00,45.5,37.7,29.82,SSE,158,0.0,0.0,74,0.00,,---,0.00,VWS V14.01,2013-02-15 07:01:00,
2013-02-14 23:06:00,45.3,37.5,29.82,SSE,158,0.0,0.0,74,0.00,,---,0.00,VWS V14.01,2013-02-15 07:06:00,
2013-02-14 23:11:00,45.3,37.5,29.79,SSE,158,0.0,0.0,74,0.00,,---,0.00,VWS V14.01,2013-02-15 07:11:00,
2013-02-14 23:16:00,45.1,37.4,29.79,SSE,158,0.0,0.0,74,0.00,,---,0.00,VWS V14.01,2013-02-15 07:16:00,
2013-02-14 23:21:00,44.8,37.0,29.79,SSE,158,0.0,0.0,74,0.00,,---,0.00,VWS V14.01,2013-02-15 07:21:00,
2013-02-14 23:26:00,44.6,36.8,29.79,SSE,158,0.0,0.0,74,0.00,,---,0.00,VWS V14.01,2013-02-15 07:26:00,
2013-02-14 23:31:00,44.2,36.8,29.79,SSE,158,0.0,0.0,75,0.00,,---,0.00,VWS V14.01,2013-02-15 07:31:00,
2013-02-14 23:36:00,44.2,36.8,29.79,SSE,158,0.0,0.0,75,0.00,,---,0.00,VWS V14.01,2013-02-15 07:36:00,
2013-02-14 23:41:00,44.1,37.0,29.79,SW,225,0.0,0.0,76,0.00,,---,0.00,VWS V14.01,2013-02-15 07:41:00,
2013-02-14 23:46:00,43.9,36.8,29.79,SW,225,0.0,0.0,76,0.00,,---,0.00,VWS V14.01,2013-02-15 07:46:00,
2013-02-14 23:51:00,43.7,36.6,29.79,SW,225,0.0,0.0,76,0.00,,---,0.00,VWS V14.01,2013-02-15 07:51:00,
2013-02-14 23:56:00,43.5,36.5,29.79,SW,225,0.0,0.0,76,0.00,,---,0.00,VWS V14.01,2013-02-15 07:56:00,